sensor_id;sensor_type;location;lat;lon;timestamp;temperature;humidity
75380;HTU21D;65641;44.714;37.756;2022-12-18T00:00:40;13.38;86.61
75380;HTU21D;65641;44.714;37.756;2022-12-18T00:01:43;13.36;86.61
75380;HTU21D;65641;44.714;37.756;2022-12-18T00:02:47;13.37;86.67
75380;HTU21D;65641;44.714;37.756;2022-12-18T00:03:51;13.38;86.67
75380;HTU21D;65641;44.714;37.756;2022-12-18T00:04:55;13.36;86.58
75380;HTU21D;65641;44.714;37.756;2022-12-18T00:06:00;13.37;86.66
75380;HTU21D;65641;44.714;37.756;2022-12-18T00:07:03;13.36;86.58
75380;HTU21D;65641;44.714;37.756;2022-12-18T00:08:06;13.36;86.61
75380;HTU21D;65641;44.714;37.756;2022-12-18T00:09:11;13.36;86.65
75380;HTU21D;65641;44.714;37.756;2022-12-18T00:10:13;13.35;86.58
75380;HTU21D;65641;44.714;37.756;2022-12-18T00:11:22;13.35;86.61
75380;HTU21D;65641;44.714;37.756;2022-12-18T00:12:25;13.34;86.62
75380;HTU21D;65641;44.714;37.756;2022-12-18T00:13:31;13.34;86.60
75380;HTU21D;65641;44.714;37.756;2022-12-18T00:14:34;13.35;86.61
75380;HTU21D;65641;44.714;37.756;2022-12-18T00:15:38;13.34;86.58
75380;HTU21D;65641;44.714;37.756;2022-12-18T00:16:45;13.35;86.64
75380;HTU21D;65641;44.714;37.756;2022-12-18T00:17:49;13.36;86.55
75380;HTU21D;65641;44.714;37.756;2022-12-18T00:18:53;13.35;86.59
75380;HTU21D;65641;44.714;37.756;2022-12-18T00:20:00;13.34;86.53
75380;HTU21D;65641;44.714;37.756;2022-12-18T00:21:07;13.34;86.65
75380;HTU21D;65641;44.714;37.756;2022-12-18T00:22:10;13.33;86.62
75380;HTU21D;65641;44.714;37.756;2022-12-18T00:23:13;13.32;86.61
75380;HTU21D;65641;44.714;37.756;2022-12-18T00:24:16;13.33;86.61
75380;HTU21D;65641;44.714;37.756;2022-12-18T00:25:20;13.31;86.58
75380;HTU21D;65641;44.714;37.756;2022-12-18T00:26:31;13.32;86.57
75380;HTU21D;65641;44.714;37.756;2022-12-18T00:27:36;13.31;86.63
75380;HTU21D;65641;44.714;37.756;2022-12-18T00:28:39;13.31;86.57
75380;HTU21D;65641;44.714;37.756;2022-12-18T00:29:43;13.31;86.58
75380;HTU21D;65641;44.714;37.756;2022-12-18T00:30:46;13.33;86.64
75380;HTU21D;65641;44.714;37.756;2022-12-18T00:31:49;13.31;86.51
75380;HTU21D;65641;44.714;37.756;2022-12-18T00:32:52;13.31;86.49
75380;HTU21D;65641;44.714;37.756;2022-12-18T00:33:56;13.31;86.52
75380;HTU21D;65641;44.714;37.756;2022-12-18T00:34:59;13.32;86.48
75380;HTU21D;65641;44.714;37.756;2022-12-18T00:36:07;13.31;86.49
75380;HTU21D;65641;44.714;37.756;2022-12-18T00:37:10;13.30;86.46
75380;HTU21D;65641;44.714;37.756;2022-12-18T00:38:21;13.30;86.48
75380;HTU21D;65641;44.714;37.756;2022-12-18T00:39:24;13.30;86.49
75380;HTU21D;65641;44.714;37.756;2022-12-18T00:40:27;13.30;86.55
75380;HTU21D;65641;44.714;37.756;2022-12-18T00:41:30;13.31;86.51
75380;HTU21D;65641;44.714;37.756;2022-12-18T00:42:52;13.29;86.48
75380;HTU21D;65641;44.714;37.756;2022-12-18T00:44:01;13.27;86.53
75380;HTU21D;65641;44.714;37.756;2022-12-18T00:45:04;13.27;86.47
75380;HTU21D;65641;44.714;37.756;2022-12-18T00:46:13;13.29;86.48
75380;HTU21D;65641;44.714;37.756;2022-12-18T00:47:16;13.27;86.47
75380;HTU21D;65641;44.714;37.756;2022-12-18T00:48:20;13.27;86.45
75380;HTU21D;65641;44.714;37.756;2022-12-18T00:49:24;13.27;86.44
75380;HTU21D;65641;44.714;37.756;2022-12-18T00:50:27;13.26;86.49
75380;HTU21D;65641;44.714;37.756;2022-12-18T00:51:31;13.26;86.50
75380;HTU21D;65641;44.714;37.756;2022-12-18T00:52:36;13.26;86.47
75380;HTU21D;65641;44.714;37.756;2022-12-18T00:53:42;13.26;86.48
75380;HTU21D;65641;44.714;37.756;2022-12-18T00:54:46;13.25;86.54
75380;HTU21D;65641;44.714;37.756;2022-12-18T00:55:49;13.25;86.52
75380;HTU21D;65641;44.714;37.756;2022-12-18T00:56:54;13.25;86.61
75380;HTU21D;65641;44.714;37.756;2022-12-18T00:57:57;13.24;86.49
75380;HTU21D;65641;44.714;37.756;2022-12-18T00:59:00;13.24;86.51
75380;HTU21D;65641;44.714;37.756;2022-12-18T01:00:04;13.23;86.58
75380;HTU21D;65641;44.714;37.756;2022-12-18T01:01:09;13.24;86.62
75380;HTU21D;65641;44.714;37.756;2022-12-18T01:02:12;13.23;86.59
75380;HTU21D;65641;44.714;37.756;2022-12-18T01:03:17;13.23;86.64
75380;HTU21D;65641;44.714;37.756;2022-12-18T01:04:20;13.23;86.60
75380;HTU21D;65641;44.714;37.756;2022-12-18T01:05:26;13.24;86.51
75380;HTU21D;65641;44.714;37.756;2022-12-18T01:06:29;13.23;86.54
75380;HTU21D;65641;44.714;37.756;2022-12-18T01:07:33;13.22;86.53
75380;HTU21D;65641;44.714;37.756;2022-12-18T01:08:38;13.23;86.49
75380;HTU21D;65641;44.714;37.756;2022-12-18T01:09:41;13.22;86.51
75380;HTU21D;65641;44.714;37.756;2022-12-18T01:10:44;13.23;86.53
75380;HTU21D;65641;44.714;37.756;2022-12-18T01:11:47;13.22;86.56
75380;HTU21D;65641;44.714;37.756;2022-12-18T01:12:50;13.21;86.52
75380;HTU21D;65641;44.714;37.756;2022-12-18T01:13:54;13.21;86.53
75380;HTU21D;65641;44.714;37.756;2022-12-18T01:15:04;13.23;86.50
75380;HTU21D;65641;44.714;37.756;2022-12-18T01:16:14;13.23;86.54
75380;HTU21D;65641;44.714;37.756;2022-12-18T01:17:20;13.22;86.49
75380;HTU21D;65641;44.714;37.756;2022-12-18T01:18:23;13.22;86.51
75380;HTU21D;65641;44.714;37.756;2022-12-18T01:19:26;13.22;86.54
75380;HTU21D;65641;44.714;37.756;2022-12-18T01:20:29;13.22;86.54
75380;HTU21D;65641;44.714;37.756;2022-12-18T01:21:33;13.22;86.51
75380;HTU21D;65641;44.714;37.756;2022-12-18T01:22:38;13.22;86.50
75380;HTU21D;65641;44.714;37.756;2022-12-18T01:23:46;13.21;86.48
75380;HTU21D;65641;44.714;37.756;2022-12-18T01:24:51;13.23;86.47
75380;HTU21D;65641;44.714;37.756;2022-12-18T01:25:56;13.21;86.49
75380;HTU21D;65641;44.714;37.756;2022-12-18T01:26:59;13.22;86.49
75380;HTU21D;65641;44.714;37.756;2022-12-18T01:28:02;13.22;86.48
75380;HTU21D;65641;44.714;37.756;2022-12-18T01:29:07;13.21;86.49
75380;HTU21D;65641;44.714;37.756;2022-12-18T01:30:10;13.22;86.44
75380;HTU21D;65641;44.714;37.756;2022-12-18T01:31:16;13.22;86.41
75380;HTU21D;65641;44.714;37.756;2022-12-18T01:32:21;13.22;86.43
75380;HTU21D;65641;44.714;37.756;2022-12-18T01:33:26;13.22;86.40
75380;HTU21D;65641;44.714;37.756;2022-12-18T01:34:29;13.21;86.42
75380;HTU21D;65641;44.714;37.756;2022-12-18T01:35:32;13.23;86.41
75380;HTU21D;65641;44.714;37.756;2022-12-18T01:36:39;13.23;86.41
75380;HTU21D;65641;44.714;37.756;2022-12-18T01:37:43;13.23;86.40
75380;HTU21D;65641;44.714;37.756;2022-12-18T01:38:47;13.23;86.40
75380;HTU21D;65641;44.714;37.756;2022-12-18T01:39:53;13.24;86.35
75380;HTU21D;65641;44.714;37.756;2022-12-18T01:41:05;13.23;86.32
75380;HTU21D;65641;44.714;37.756;2022-12-18T01:42:12;13.23;86.34
75380;HTU21D;65641;44.714;37.756;2022-12-18T01:43:16;13.22;86.32
75380;HTU21D;65641;44.714;37.756;2022-12-18T01:46:08;13.23;86.39
75380;HTU21D;65641;44.714;37.756;2022-12-18T01:47:32;13.24;86.41
75380;HTU21D;65641;44.714;37.756;2022-12-18T01:48:40;13.23;86.35
75380;HTU21D;65641;44.714;37.756;2022-12-18T01:49:46;13.24;86.38
75380;HTU21D;65641;44.714;37.756;2022-12-18T01:50:49;13.23;86.32
75380;HTU21D;65641;44.714;37.756;2022-12-18T01:51:52;13.23;86.32
75380;HTU21D;65641;44.714;37.756;2022-12-18T01:53:10;13.23;86.33
75380;HTU21D;65641;44.714;37.756;2022-12-18T01:54:13;13.23;86.28
75380;HTU21D;65641;44.714;37.756;2022-12-18T01:55:19;13.23;86.25
75380;HTU21D;65641;44.714;37.756;2022-12-18T01:56:22;13.23;86.35
75380;HTU21D;65641;44.714;37.756;2022-12-18T01:57:27;13.22;86.37
75380;HTU21D;65641;44.714;37.756;2022-12-18T01:59:57;13.22;86.34
75380;HTU21D;65641;44.714;37.756;2022-12-18T02:01:02;13.21;86.34
75380;HTU21D;65641;44.714;37.756;2022-12-18T02:02:07;13.22;86.31
75380;HTU21D;65641;44.714;37.756;2022-12-18T02:03:11;13.21;86.38
75380;HTU21D;65641;44.714;37.756;2022-12-18T02:04:25;13.21;86.29
75380;HTU21D;65641;44.714;37.756;2022-12-18T02:06:34;13.21;86.32
75380;HTU21D;65641;44.714;37.756;2022-12-18T02:09:08;13.20;86.30
75380;HTU21D;65641;44.714;37.756;2022-12-18T02:10:23;13.21;86.36
75380;HTU21D;65641;44.714;37.756;2022-12-18T02:17:12;13.21;86.36
75380;HTU21D;65641;44.714;37.756;2022-12-18T02:18:35;13.20;86.35
75380;HTU21D;65641;44.714;37.756;2022-12-18T02:21:25;13.20;86.29
75380;HTU21D;65641;44.714;37.756;2022-12-18T02:26:38;13.17;86.38
75380;HTU21D;65641;44.714;37.756;2022-12-18T02:27:49;13.18;86.38
75380;HTU21D;65641;44.714;37.756;2022-12-18T02:29:15;13.18;86.42
75380;HTU21D;65641;44.714;37.756;2022-12-18T02:30:20;13.18;86.41
75380;HTU21D;65641;44.714;37.756;2022-12-18T02:31:28;13.16;86.44
75380;HTU21D;65641;44.714;37.756;2022-12-18T02:32:40;13.17;86.42
75380;HTU21D;65641;44.714;37.756;2022-12-18T02:33:49;13.18;86.45
75380;HTU21D;65641;44.714;37.756;2022-12-18T02:34:55;13.18;86.44
75380;HTU21D;65641;44.714;37.756;2022-12-18T02:36:02;13.17;86.50
75380;HTU21D;65641;44.714;37.756;2022-12-18T02:37:12;13.18;86.45
75380;HTU21D;65641;44.714;37.756;2022-12-18T02:38:16;13.17;86.37
75380;HTU21D;65641;44.714;37.756;2022-12-18T02:39:23;13.17;86.39
75380;HTU21D;65641;44.714;37.756;2022-12-18T02:40:38;13.18;86.43
75380;HTU21D;65641;44.714;37.756;2022-12-18T02:41:43;13.17;86.37
75380;HTU21D;65641;44.714;37.756;2022-12-18T02:42:46;13.18;86.38
75380;HTU21D;65641;44.714;37.756;2022-12-18T02:43:58;13.18;86.33
75380;HTU21D;65641;44.714;37.756;2022-12-18T02:45:04;13.18;86.38
75380;HTU21D;65641;44.714;37.756;2022-12-18T02:46:32;13.17;86.38
75380;HTU21D;65641;44.714;37.756;2022-12-18T02:47:43;13.17;86.39
75380;HTU21D;65641;44.714;37.756;2022-12-18T02:48:49;13.18;86.40
75380;HTU21D;65641;44.714;37.756;2022-12-18T02:51:25;13.17;86.40
75380;HTU21D;65641;44.714;37.756;2022-12-18T02:52:45;13.17;86.38
75380;HTU21D;65641;44.714;37.756;2022-12-18T02:53:58;13.18;86.32
75380;HTU21D;65641;44.714;37.756;2022-12-18T02:55:25;13.17;86.31
75380;HTU21D;65641;44.714;37.756;2022-12-18T02:56:44;13.18;86.34
75380;HTU21D;65641;44.714;37.756;2022-12-18T02:58:11;13.16;86.41
75380;HTU21D;65641;44.714;37.756;2022-12-18T02:59:31;13.18;86.39
75380;HTU21D;65641;44.714;37.756;2022-12-18T03:00:52;13.16;86.34
75380;HTU21D;65641;44.714;37.756;2022-12-18T03:02:23;13.16;86.40
75380;HTU21D;65641;44.714;37.756;2022-12-18T03:03:38;13.16;86.35
75380;HTU21D;65641;44.714;37.756;2022-12-18T03:04:49;13.16;86.37
75380;HTU21D;65641;44.714;37.756;2022-12-18T03:06:02;13.17;86.38
75380;HTU21D;65641;44.714;37.756;2022-12-18T03:07:11;13.17;86.32
75380;HTU21D;65641;44.714;37.756;2022-12-18T03:08:24;13.17;86.30
75380;HTU21D;65641;44.714;37.756;2022-12-18T03:09:38;13.16;86.38
75380;HTU21D;65641;44.714;37.756;2022-12-18T03:10:48;13.16;86.29
75380;HTU21D;65641;44.714;37.756;2022-12-18T03:11:56;13.16;86.35
75380;HTU21D;65641;44.714;37.756;2022-12-18T03:13:25;13.15;86.32
75380;HTU21D;65641;44.714;37.756;2022-12-18T03:14:34;13.16;86.31
75380;HTU21D;65641;44.714;37.756;2022-12-18T03:15:47;13.16;86.35
75380;HTU21D;65641;44.714;37.756;2022-12-18T03:16:58;13.15;86.35
75380;HTU21D;65641;44.714;37.756;2022-12-18T03:18:17;13.15;86.34
75380;HTU21D;65641;44.714;37.756;2022-12-18T03:19:25;13.15;86.35
75380;HTU21D;65641;44.714;37.756;2022-12-18T03:20:34;13.15;86.41
75380;HTU21D;65641;44.714;37.756;2022-12-18T03:22:00;13.14;86.29
75380;HTU21D;65641;44.714;37.756;2022-12-18T03:23:18;13.15;86.31
75380;HTU21D;65641;44.714;37.756;2022-12-18T03:24:29;13.15;86.32
75380;HTU21D;65641;44.714;37.756;2022-12-18T03:25:40;13.14;86.36
75380;HTU21D;65641;44.714;37.756;2022-12-18T03:26:47;13.14;86.32
75380;HTU21D;65641;44.714;37.756;2022-12-18T03:27:58;13.12;86.31
75380;HTU21D;65641;44.714;37.756;2022-12-18T03:29:07;13.15;86.35
75380;HTU21D;65641;44.714;37.756;2022-12-18T03:30:13;13.12;86.35
75380;HTU21D;65641;44.714;37.756;2022-12-18T03:31:22;13.14;86.38
75380;HTU21D;65641;44.714;37.756;2022-12-18T03:32:30;13.12;86.38
75380;HTU21D;65641;44.714;37.756;2022-12-18T03:33:39;13.12;86.38
75380;HTU21D;65641;44.714;37.756;2022-12-18T03:34:47;13.14;86.39
75380;HTU21D;65641;44.714;37.756;2022-12-18T03:35:56;13.12;86.38
75380;HTU21D;65641;44.714;37.756;2022-12-18T03:37:01;13.12;86.37
75380;HTU21D;65641;44.714;37.756;2022-12-18T03:38:07;13.12;86.40
75380;HTU21D;65641;44.714;37.756;2022-12-18T03:39:13;13.14;86.36
75380;HTU21D;65641;44.714;37.756;2022-12-18T03:40:27;13.12;86.31
75380;HTU21D;65641;44.714;37.756;2022-12-18T03:42:49;13.12;86.38
75380;HTU21D;65641;44.714;37.756;2022-12-18T03:46:00;13.10;86.42
75380;HTU21D;65641;44.714;37.756;2022-12-18T03:48:20;13.10;86.41
75380;HTU21D;65641;44.714;37.756;2022-12-18T03:51:17;13.09;86.41
75380;HTU21D;65641;44.714;37.756;2022-12-18T03:53:49;13.11;86.38
75380;HTU21D;65641;44.714;37.756;2022-12-18T03:54:58;13.10;86.42
75380;HTU21D;65641;44.714;37.756;2022-12-18T03:56:04;13.10;86.45
75380;HTU21D;65641;44.714;37.756;2022-12-18T03:57:19;13.11;86.35
75380;HTU21D;65641;44.714;37.756;2022-12-18T03:58:26;13.11;86.36
75380;HTU21D;65641;44.714;37.756;2022-12-18T03:59:43;13.11;86.36
75380;HTU21D;65641;44.714;37.756;2022-12-18T04:00:55;13.10;86.41
75380;HTU21D;65641;44.714;37.756;2022-12-18T04:02:01;13.11;86.38
75380;HTU21D;65641;44.714;37.756;2022-12-18T04:03:07;13.12;86.38
75380;HTU21D;65641;44.714;37.756;2022-12-18T04:04:20;13.10;86.43
75380;HTU21D;65641;44.714;37.756;2022-12-18T04:05:27;13.10;86.40
75380;HTU21D;65641;44.714;37.756;2022-12-18T04:06:32;13.11;86.42
75380;HTU21D;65641;44.714;37.756;2022-12-18T04:07:36;13.11;86.39
75380;HTU21D;65641;44.714;37.756;2022-12-18T04:08:45;13.10;86.48
75380;HTU21D;65641;44.714;37.756;2022-12-18T04:09:54;13.11;86.47
75380;HTU21D;65641;44.714;37.756;2022-12-18T04:10:59;13.11;86.48
75380;HTU21D;65641;44.714;37.756;2022-12-18T04:12:02;13.11;86.45
75380;HTU21D;65641;44.714;37.756;2022-12-18T04:13:08;13.12;86.38
75380;HTU21D;65641;44.714;37.756;2022-12-18T04:14:11;13.12;86.37
75380;HTU21D;65641;44.714;37.756;2022-12-18T04:15:20;13.14;86.39
75380;HTU21D;65641;44.714;37.756;2022-12-18T04:16:27;13.12;86.34
75380;HTU21D;65641;44.714;37.756;2022-12-18T04:17:33;13.14;86.35
75380;HTU21D;65641;44.714;37.756;2022-12-18T04:18:38;13.15;86.41
75380;HTU21D;65641;44.714;37.756;2022-12-18T04:19:44;13.15;86.32
75380;HTU21D;65641;44.714;37.756;2022-12-18T04:20:47;13.16;86.32
75380;HTU21D;65641;44.714;37.756;2022-12-18T04:21:52;13.16;86.30
75380;HTU21D;65641;44.714;37.756;2022-12-18T04:22:55;13.15;86.32
75380;HTU21D;65641;44.714;37.756;2022-12-18T04:23:59;13.16;86.35
75380;HTU21D;65641;44.714;37.756;2022-12-18T04:25:04;13.17;86.32
75380;HTU21D;65641;44.714;37.756;2022-12-18T04:26:12;13.17;86.31
75380;HTU21D;65641;44.714;37.756;2022-12-18T04:27:34;13.18;86.32
75380;HTU21D;65641;44.714;37.756;2022-12-18T04:28:39;13.18;86.35
75380;HTU21D;65641;44.714;37.756;2022-12-18T04:29:43;13.18;86.32
75380;HTU21D;65641;44.714;37.756;2022-12-18T04:30:47;13.19;86.29
75380;HTU21D;65641;44.714;37.756;2022-12-18T04:31:50;13.20;86.25
75380;HTU21D;65641;44.714;37.756;2022-12-18T04:32:57;13.20;86.25
75380;HTU21D;65641;44.714;37.756;2022-12-18T04:34:01;13.21;86.24
75380;HTU21D;65641;44.714;37.756;2022-12-18T04:35:08;13.21;86.25
75380;HTU21D;65641;44.714;37.756;2022-12-18T04:36:16;13.22;86.19
75380;HTU21D;65641;44.714;37.756;2022-12-18T04:37:20;13.22;86.19
75380;HTU21D;65641;44.714;37.756;2022-12-18T04:38:24;13.23;86.21
75380;HTU21D;65641;44.714;37.756;2022-12-18T04:39:36;13.23;86.18
75380;HTU21D;65641;44.714;37.756;2022-12-18T04:40:47;13.23;86.15
75380;HTU21D;65641;44.714;37.756;2022-12-18T04:42:00;13.25;86.18
75380;HTU21D;65641;44.714;37.756;2022-12-18T04:43:04;13.25;86.16
75380;HTU21D;65641;44.714;37.756;2022-12-18T04:44:08;13.25;86.09
75380;HTU21D;65641;44.714;37.756;2022-12-18T04:45:11;13.25;86.06
75380;HTU21D;65641;44.714;37.756;2022-12-18T04:46:14;13.25;86.10
75380;HTU21D;65641;44.714;37.756;2022-12-18T04:47:18;13.27;86.09
75380;HTU21D;65641;44.714;37.756;2022-12-18T04:48:22;13.26;86.11
75380;HTU21D;65641;44.714;37.756;2022-12-18T04:49:25;13.27;86.14
75380;HTU21D;65641;44.714;37.756;2022-12-18T04:50:29;13.29;86.09
75380;HTU21D;65641;44.714;37.756;2022-12-18T04:51:32;13.29;86.03
75380;HTU21D;65641;44.714;37.756;2022-12-18T04:52:35;13.29;86.08
75380;HTU21D;65641;44.714;37.756;2022-12-18T04:53:39;13.29;86.06
75380;HTU21D;65641;44.714;37.756;2022-12-18T04:54:42;13.29;86.05
75380;HTU21D;65641;44.714;37.756;2022-12-18T04:55:46;13.30;86.07
75380;HTU21D;65641;44.714;37.756;2022-12-18T04:56:49;13.31;86.00
75380;HTU21D;65641;44.714;37.756;2022-12-18T04:57:54;13.31;86.06
75380;HTU21D;65641;44.714;37.756;2022-12-18T04:58:57;13.32;86.00
75380;HTU21D;65641;44.714;37.756;2022-12-18T05:00:00;13.33;86.03
75380;HTU21D;65641;44.714;37.756;2022-12-18T05:01:06;13.33;86.05
75380;HTU21D;65641;44.714;37.756;2022-12-18T05:02:12;13.33;85.96
75380;HTU21D;65641;44.714;37.756;2022-12-18T05:03:15;13.34;85.96
75380;HTU21D;65641;44.714;37.756;2022-12-18T05:04:18;13.34;85.93
75380;HTU21D;65641;44.714;37.756;2022-12-18T05:05:21;13.34;85.91
75380;HTU21D;65641;44.714;37.756;2022-12-18T05:06:24;13.35;85.93
75380;HTU21D;65641;44.714;37.756;2022-12-18T05:07:27;13.36;85.91
75380;HTU21D;65641;44.714;37.756;2022-12-18T05:08:30;13.37;85.90
75380;HTU21D;65641;44.714;37.756;2022-12-18T05:09:34;13.38;85.88
75380;HTU21D;65641;44.714;37.756;2022-12-18T05:10:37;13.38;85.91
75380;HTU21D;65641;44.714;37.756;2022-12-18T05:11:40;13.40;85.80
75380;HTU21D;65641;44.714;37.756;2022-12-18T05:12:43;13.41;85.77
75380;HTU21D;65641;44.714;37.756;2022-12-18T05:14:03;13.43;85.75
75380;HTU21D;65641;44.714;37.756;2022-12-18T05:15:08;13.44;85.72
75380;HTU21D;65641;44.714;37.756;2022-12-18T05:16:12;13.45;85.71
75380;HTU21D;65641;44.714;37.756;2022-12-18T05:17:15;13.45;85.68
75380;HTU21D;65641;44.714;37.756;2022-12-18T05:18:18;13.47;85.61
75380;HTU21D;65641;44.714;37.756;2022-12-18T05:19:21;13.48;85.60
75380;HTU21D;65641;44.714;37.756;2022-12-18T05:20:25;13.49;85.55
75380;HTU21D;65641;44.714;37.756;2022-12-18T05:21:28;13.51;85.48
75380;HTU21D;65641;44.714;37.756;2022-12-18T05:22:31;13.52;85.47
75380;HTU21D;65641;44.714;37.756;2022-12-18T05:23:35;13.52;85.42
75380;HTU21D;65641;44.714;37.756;2022-12-18T05:24:39;13.55;85.36
75380;HTU21D;65641;44.714;37.756;2022-12-18T05:25:41;13.56;85.33
75380;HTU21D;65641;44.714;37.756;2022-12-18T05:26:46;13.58;85.28
75380;HTU21D;65641;44.714;37.756;2022-12-18T05:27:49;13.60;85.26
75380;HTU21D;65641;44.714;37.756;2022-12-18T05:28:52;13.61;85.26
75380;HTU21D;65641;44.714;37.756;2022-12-18T05:29:59;13.62;85.18
75380;HTU21D;65641;44.714;37.756;2022-12-18T05:31:03;13.63;85.12
75380;HTU21D;65641;44.714;37.756;2022-12-18T05:32:07;13.66;85.04
75380;HTU21D;65641;44.714;37.756;2022-12-18T05:33:09;13.67;85.04
75380;HTU21D;65641;44.714;37.756;2022-12-18T05:34:13;13.69;84.97
75380;HTU21D;65641;44.714;37.756;2022-12-18T05:35:16;13.70;84.93
75380;HTU21D;65641;44.714;37.756;2022-12-18T05:36:21;13.73;84.91
75380;HTU21D;65641;44.714;37.756;2022-12-18T05:37:24;13.76;84.84
75380;HTU21D;65641;44.714;37.756;2022-12-18T05:38:28;13.77;84.77
75380;HTU21D;65641;44.714;37.756;2022-12-18T05:39:32;13.79;84.71
75380;HTU21D;65641;44.714;37.756;2022-12-18T05:40:35;13.81;84.68
75380;HTU21D;65641;44.714;37.756;2022-12-18T05:41:41;13.82;84.60
75380;HTU21D;65641;44.714;37.756;2022-12-18T05:42:44;13.84;84.60
75380;HTU21D;65641;44.714;37.756;2022-12-18T05:43:47;13.84;84.55
75380;HTU21D;65641;44.714;37.756;2022-12-18T05:44:52;13.86;84.54
75380;HTU21D;65641;44.714;37.756;2022-12-18T05:45:55;13.89;84.40
75380;HTU21D;65641;44.714;37.756;2022-12-18T05:46:59;13.91;84.38
75380;HTU21D;65641;44.714;37.756;2022-12-18T05:48:02;13.92;84.32
75380;HTU21D;65641;44.714;37.756;2022-12-18T05:49:05;13.96;84.28
75380;HTU21D;65641;44.714;37.756;2022-12-18T05:50:08;13.97;84.20
75380;HTU21D;65641;44.714;37.756;2022-12-18T05:51:14;14.00;84.14
75380;HTU21D;65641;44.714;37.756;2022-12-18T05:52:18;14.04;84.10
75380;HTU21D;65641;44.714;37.756;2022-12-18T05:53:22;14.07;83.88
75380;HTU21D;65641;44.714;37.756;2022-12-18T05:54:27;14.08;83.85
75380;HTU21D;65641;44.714;37.756;2022-12-18T05:55:34;14.11;83.81
75380;HTU21D;65641;44.714;37.756;2022-12-18T05:56:38;14.13;83.71
75380;HTU21D;65641;44.714;37.756;2022-12-18T05:57:46;14.17;83.72
75380;HTU21D;65641;44.714;37.756;2022-12-18T05:58:53;14.21;83.50
75380;HTU21D;65641;44.714;37.756;2022-12-18T05:59:56;14.23;83.45
75380;HTU21D;65641;44.714;37.756;2022-12-18T06:01:07;14.25;83.42
75380;HTU21D;65641;44.714;37.756;2022-12-18T06:02:11;14.28;83.32
75380;HTU21D;65641;44.714;37.756;2022-12-18T06:03:14;14.32;83.23
75380;HTU21D;65641;44.714;37.756;2022-12-18T06:04:18;14.35;83.16
75380;HTU21D;65641;44.714;37.756;2022-12-18T06:05:21;14.38;83.11
75380;HTU21D;65641;44.714;37.756;2022-12-18T06:06:27;14.40;83.06
75380;HTU21D;65641;44.714;37.756;2022-12-18T06:07:30;14.44;82.94
75380;HTU21D;65641;44.714;37.756;2022-12-18T06:08:33;14.48;82.91
75380;HTU21D;65641;44.714;37.756;2022-12-18T06:09:36;14.51;82.81
75380;HTU21D;65641;44.714;37.756;2022-12-18T06:10:39;14.54;82.66
75380;HTU21D;65641;44.714;37.756;2022-12-18T06:11:42;14.58;82.50
75380;HTU21D;65641;44.714;37.756;2022-12-18T06:12:45;14.62;82.39
75380;HTU21D;65641;44.714;37.756;2022-12-18T06:13:53;14.65;82.39
75380;HTU21D;65641;44.714;37.756;2022-12-18T06:15:00;14.67;82.36
75380;HTU21D;65641;44.714;37.756;2022-12-18T06:16:05;14.70;82.32
75380;HTU21D;65641;44.714;37.756;2022-12-18T06:17:08;14.74;82.21
75380;HTU21D;65641;44.714;37.756;2022-12-18T06:18:11;14.77;82.06
75380;HTU21D;65641;44.714;37.756;2022-12-18T06:19:15;14.81;82.06
75380;HTU21D;65641;44.714;37.756;2022-12-18T06:20:19;14.82;81.96
75380;HTU21D;65641;44.714;37.756;2022-12-18T06:21:21;14.86;81.85
75380;HTU21D;65641;44.714;37.756;2022-12-18T06:22:25;14.91;81.81
75380;HTU21D;65641;44.714;37.756;2022-12-18T06:23:28;14.93;81.69
75380;HTU21D;65641;44.714;37.756;2022-12-18T06:24:32;14.96;81.68
75380;HTU21D;65641;44.714;37.756;2022-12-18T06:25:38;14.99;81.60
75380;HTU21D;65641;44.714;37.756;2022-12-18T06:26:41;15.01;81.47
75380;HTU21D;65641;44.714;37.756;2022-12-18T06:27:47;15.03;81.43
75380;HTU21D;65641;44.714;37.756;2022-12-18T06:28:50;15.06;81.46
75380;HTU21D;65641;44.714;37.756;2022-12-18T06:29:53;15.08;81.39
75380;HTU21D;65641;44.714;37.756;2022-12-18T06:30:56;15.09;81.31
75380;HTU21D;65641;44.714;37.756;2022-12-18T06:31:59;15.12;81.25
75380;HTU21D;65641;44.714;37.756;2022-12-18T06:33:02;15.14;81.28
75380;HTU21D;65641;44.714;37.756;2022-12-18T06:34:05;15.18;81.22
75380;HTU21D;65641;44.714;37.756;2022-12-18T06:35:08;15.21;81.17
75380;HTU21D;65641;44.714;37.756;2022-12-18T06:36:13;15.23;81.10
75380;HTU21D;65641;44.714;37.756;2022-12-18T06:37:16;15.24;81.07
75380;HTU21D;65641;44.714;37.756;2022-12-18T06:38:19;15.27;81.06
75380;HTU21D;65641;44.714;37.756;2022-12-18T06:39:22;15.28;80.95
75380;HTU21D;65641;44.714;37.756;2022-12-18T06:40:25;15.31;80.93
75380;HTU21D;65641;44.714;37.756;2022-12-18T06:41:28;15.34;80.87
75380;HTU21D;65641;44.714;37.756;2022-12-18T06:42:31;15.38;80.81
75380;HTU21D;65641;44.714;37.756;2022-12-18T06:43:34;15.39;80.82
75380;HTU21D;65641;44.714;37.756;2022-12-18T06:44:37;15.41;80.71
75380;HTU21D;65641;44.714;37.756;2022-12-18T06:45:40;15.43;80.70
75380;HTU21D;65641;44.714;37.756;2022-12-18T06:46:43;15.46;80.58
75380;HTU21D;65641;44.714;37.756;2022-12-18T06:47:48;15.48;80.50
75380;HTU21D;65641;44.714;37.756;2022-12-18T06:48:51;15.53;80.46
75380;HTU21D;65641;44.714;37.756;2022-12-18T06:49:55;15.55;80.40
75380;HTU21D;65641;44.714;37.756;2022-12-18T06:50:58;15.58;80.37
75380;HTU21D;65641;44.714;37.756;2022-12-18T06:52:01;15.61;80.33
75380;HTU21D;65641;44.714;37.756;2022-12-18T06:53:04;15.63;80.23
75380;HTU21D;65641;44.714;37.756;2022-12-18T06:54:08;15.66;80.17
75380;HTU21D;65641;44.714;37.756;2022-12-18T06:55:11;15.70;79.98
75380;HTU21D;65641;44.714;37.756;2022-12-18T06:56:14;15.71;80.08
75380;HTU21D;65641;44.714;37.756;2022-12-18T06:57:17;15.75;80.06
75380;HTU21D;65641;44.714;37.756;2022-12-18T06:58:20;15.77;79.99
75380;HTU21D;65641;44.714;37.756;2022-12-18T06:59:23;15.81;79.96
75380;HTU21D;65641;44.714;37.756;2022-12-18T07:00:27;15.83;79.90
75380;HTU21D;65641;44.714;37.756;2022-12-18T07:01:30;15.85;79.87
75380;HTU21D;65641;44.714;37.756;2022-12-18T07:02:33;15.88;79.83
75380;HTU21D;65641;44.714;37.756;2022-12-18T07:03:37;15.91;79.73
75380;HTU21D;65641;44.714;37.756;2022-12-18T07:04:41;15.96;79.69
75380;HTU21D;65641;44.714;37.756;2022-12-18T07:05:44;16.00;79.62
75380;HTU21D;65641;44.714;37.756;2022-12-18T07:06:47;16.03;79.49
75380;HTU21D;65641;44.714;37.756;2022-12-18T07:07:50;16.06;79.48
75380;HTU21D;65641;44.714;37.756;2022-12-18T07:08:53;16.11;79.41
75380;HTU21D;65641;44.714;37.756;2022-12-18T07:09:56;16.14;79.30
75380;HTU21D;65641;44.714;37.756;2022-12-18T07:11:03;16.17;79.17
75380;HTU21D;65641;44.714;37.756;2022-12-18T07:12:07;16.21;79.03